createdAt,value
2023-01-26T00:00:37.389Z,98951.25
2023-01-26T00:03:38.890Z,98947.06
2023-01-26T00:06:40.404Z,98947.06
2023-01-26T00:09:41.861Z,98936.84
2023-01-26T00:12:43.316Z,98933.66
2023-01-26T00:15:44.904Z,98932.19
2023-01-26T00:18:46.391Z,98932.47
2023-01-26T00:21:47.823Z,98929.59
2023-01-26T00:24:49.329Z,98916.91
2023-01-26T00:27:50.776Z,98907.66
2023-01-26T00:30:52.416Z,98904.69
2023-01-26T00:33:54.440Z,98916.50
2023-01-26T00:36:55.873Z,98904.16
2023-01-26T00:39:57.323Z,98905.81
2023-01-26T00:42:59.261Z,98896.69
2023-01-26T00:46:00.777Z,98901.22
2023-01-26T00:49:02.266Z,98894.84
2023-01-26T00:52:03.764Z,98888.94
2023-01-26T00:55:05.610Z,98878.50
2023-01-26T00:58:07.499Z,98875.28
2023-01-26T01:01:09.092Z,98878.41
2023-01-26T01:04:10.581Z,98878.34
2023-01-26T01:07:12.031Z,98881.75
2023-01-26T01:10:13.673Z,98875.47
2023-01-26T01:13:15.170Z,98881.94
2023-01-26T01:16:16.755Z,98878.56
2023-01-26T01:19:18.288Z,98889.19
2023-01-26T01:22:19.784Z,98881.59
2023-01-26T01:25:21.264Z,98885.09
2023-01-26T01:28:22.709Z,98884.50
2023-01-26T01:31:24.293Z,98885.34
2023-01-26T01:34:25.762Z,98891.88
2023-01-26T01:37:28.847Z,98879.94
2023-01-26T01:40:30.398Z,98882.34
2023-01-26T01:43:31.892Z,98870.50
2023-01-26T01:46:34.128Z,98876.50
2023-01-26T01:49:48.932Z,98873.75
2023-01-26T01:52:50.390Z,98871.66
2023-01-26T01:55:54.466Z,98870.66
2023-01-26T01:58:57.656Z,98870.09
2023-01-26T02:01:59.126Z,98872.25
2023-01-26T02:05:04.227Z,98871.03
2023-01-26T02:08:06.132Z,98870.78
2023-01-26T02:11:13.872Z,98881.25
2023-01-26T02:14:15.361Z,98877.25
2023-01-26T02:17:16.800Z,98884.16
2023-01-26T02:20:25.091Z,98886.97
2023-01-26T02:23:48.319Z,98876.19
2023-01-26T02:26:49.812Z,98871.91
2023-01-26T02:29:51.257Z,98870.88
2023-01-26T02:32:52.955Z,98867.66
2023-01-26T02:35:54.469Z,98860.66
2023-01-26T02:39:11.773Z,98868.41
2023-01-26T02:42:31.770Z,98862.28
2023-01-26T02:45:33.261Z,98854.53
2023-01-26T02:48:57.808Z,98856.22
2023-01-26T02:51:59.581Z,98844.59
2023-01-26T02:55:19.501Z,98848.56
2023-01-26T03:02:43.362Z,98835.75
2023-01-26T03:05:44.933Z,98831.94
2023-01-26T03:08:46.397Z,98825.47
2023-01-26T03:11:47.831Z,98824.56
2023-01-26T03:15:09.239Z,98822.34
2023-01-26T03:18:35.624Z,98823.25
2023-01-26T03:21:55.768Z,98819.47
2023-01-26T03:25:15.785Z,98811.91
2023-01-26T03:28:22.177Z,98815.13
2023-01-26T03:31:23.677Z,98815.16
2023-01-26T03:34:25.576Z,98811.38
2023-01-26T03:37:27.043Z,98824.13
2023-01-26T03:40:47.189Z,98813.16
2023-01-26T03:44:07.398Z,98814.50
2023-01-26T03:47:27.482Z,98806.78
2023-01-26T03:50:47.419Z,98807.91
2023-01-26T03:54:07.518Z,98797.69
2023-01-26T03:57:08.972Z,98805.78
2023-01-26T04:00:11.280Z,98801.91
2023-01-26T04:03:31.282Z,98782.44
2023-01-26T04:06:51.370Z,98781.88
2023-01-26T04:09:52.854Z,98777.25
2023-01-26T04:13:12.788Z,98783.94
2023-01-26T04:16:32.900Z,98776.59
2023-01-26T04:19:53.091Z,98772.31
2023-01-26T04:22:54.676Z,98764.34
2023-01-26T04:25:56.155Z,98765.69
2023-01-26T04:28:57.629Z,98758.09
2023-01-26T04:31:59.100Z,98753.31
2023-01-26T04:35:00.564Z,98756.81
2023-01-26T04:38:02.029Z,98746.69
2023-01-26T04:41:03.560Z,98741.00
2023-01-26T04:44:05.112Z,98739.03
2023-01-26T04:47:06.531Z,98739.63
2023-01-26T04:50:08.854Z,98730.97
2023-01-26T04:53:10.553Z,98730.34
2023-01-26T04:56:26.847Z,98722.16
2023-01-26T04:59:28.369Z,98726.28
2023-01-26T05:02:30.018Z,98718.94
2023-01-26T05:05:35.092Z,98733.78
2023-01-26T05:08:36.997Z,98732.94
2023-01-26T05:11:38.456Z,98728.03
2023-01-26T05:14:39.952Z,98727.59
2023-01-26T05:17:41.433Z,98732.34
2023-01-26T05:20:42.884Z,98741.59
2023-01-26T05:23:44.373Z,98741.22
2023-01-26T05:26:45.816Z,98744.31
2023-01-26T05:29:47.553Z,98741.69
2023-01-26T05:32:49.015Z,98748.81
2023-01-26T05:35:50.960Z,98741.19
2023-01-26T05:38:52.401Z,98737.19
2023-01-26T05:41:56.770Z,98734.22
2023-01-26T05:44:58.223Z,98735.41
2023-01-26T05:47:59.717Z,98726.41
2023-01-26T05:51:03.808Z,98727.19
2023-01-26T05:54:05.532Z,98736.59
2023-01-26T05:57:07.000Z,98737.56
2023-01-26T06:00:09.335Z,98731.94
2023-01-26T06:03:13.075Z,98736.88
2023-01-26T06:06:14.548Z,98739.69
2023-01-26T06:09:16.171Z,98743.16
2023-01-26T06:12:18.801Z,98731.69
2023-01-26T06:15:20.270Z,98732.09
2023-01-26T06:18:21.764Z,98724.72
2023-01-26T06:21:23.247Z,98731.22
2023-01-26T06:24:24.893Z,98732.84
2023-01-26T06:27:26.357Z,98736.34
2023-01-26T06:30:27.917Z,98742.59
2023-01-26T06:33:30.118Z,98731.91
2023-01-26T06:36:31.637Z,98733.81
2023-01-26T06:39:33.120Z,98725.53
2023-01-26T06:42:34.580Z,98727.41
2023-01-26T06:45:36.052Z,98731.56
2023-01-26T06:48:38.825Z,98727.97
2023-01-26T06:51:47.208Z,98726.41
2023-01-26T06:54:50.627Z,98729.72
2023-01-26T06:57:54.176Z,98733.00
2023-01-26T07:00:55.921Z,98736.13
2023-01-26T07:03:57.415Z,98742.72
2023-01-26T07:06:58.930Z,98743.44
2023-01-26T07:10:00.387Z,98745.94
2023-01-26T07:13:01.826Z,98758.13
2023-01-26T07:16:08.799Z,98761.94
2023-01-26T07:19:10.314Z,98765.59
2023-01-26T07:22:11.873Z,98777.78
2023-01-26T07:25:13.408Z,98773.28
2023-01-26T07:28:14.865Z,98788.06
2023-01-26T07:31:16.541Z,98786.53
2023-01-26T07:34:18.089Z,98786.25
2023-01-26T07:37:19.550Z,98792.91
2023-01-26T07:40:21.106Z,98795.97
2023-01-26T07:43:22.579Z,98794.72
2023-01-26T07:46:24.631Z,98801.28
2023-01-26T07:49:26.122Z,98796.69
2023-01-26T07:52:27.638Z,98796.47
2023-01-26T07:55:29.121Z,98788.44
2023-01-26T07:58:30.573Z,98801.50
2023-01-26T08:01:32.135Z,98774.88
2023-01-26T08:04:33.795Z,98792.56
2023-01-26T08:07:35.235Z,98786.00
2023-01-26T08:10:36.712Z,98779.03
2023-01-26T08:13:38.192Z,98771.91
2023-01-26T08:16:39.713Z,98759.19
2023-01-26T08:19:41.216Z,98766.22
2023-01-26T08:22:42.676Z,98773.53
2023-01-26T08:25:44.175Z,98769.72
2023-01-26T08:28:45.788Z,98781.97
2023-01-26T08:31:47.314Z,98782.09
2023-01-26T08:34:48.829Z,98785.69
2023-01-26T08:37:51.379Z,98786.56
2023-01-26T08:40:53.697Z,98781.69
2023-01-26T08:43:56.723Z,98781.41
2023-01-26T08:46:58.188Z,98782.38
2023-01-26T08:49:59.700Z,98777.28
2023-01-26T08:53:01.154Z,98780.53
2023-01-26T08:56:03.755Z,98777.56
2023-01-26T08:59:05.325Z,98779.03
2023-01-26T09:02:06.937Z,98781.50
2023-01-26T09:05:08.972Z,98779.97
2023-01-26T09:08:10.841Z,98774.78
2023-01-26T09:11:12.355Z,98780.31
2023-01-26T09:14:13.856Z,98781.25
2023-01-26T09:17:15.331Z,98771.53
2023-01-26T09:20:17.253Z,98779.72
2023-01-26T09:23:18.805Z,98781.47
2023-01-26T09:26:20.339Z,98796.28
2023-01-26T09:29:21.894Z,98787.19
2023-01-26T09:32:23.400Z,98789.81
2023-01-26T09:35:24.883Z,98790.94
2023-01-26T09:38:26.346Z,98798.88
2023-01-26T09:41:45.656Z,98794.59
2023-01-26T09:45:05.796Z,98798.91
2023-01-26T09:48:16.863Z,98808.66
2023-01-26T09:51:29.263Z,98804.47
2023-01-26T09:54:40.652Z,98810.31
2023-01-26T09:57:47.727Z,98809.84
2023-01-26T10:00:50.769Z,98803.28
2023-01-26T10:04:04.229Z,98805.91
2023-01-26T10:07:09.242Z,98806.19
2023-01-26T10:10:15.574Z,98801.75
2023-01-26T10:13:17.041Z,98783.31
2023-01-26T10:16:18.564Z,98788.69
2023-01-26T10:19:34.190Z,98792.94
2023-01-26T10:22:45.247Z,98797.38
2023-01-26T10:25:50.968Z,98793.25
2023-01-26T10:28:52.443Z,98790.44
2023-01-26T10:31:55.100Z,98789.59
2023-01-26T10:34:56.904Z,98786.78
2023-01-26T10:37:58.504Z,98787.06
2023-01-26T10:41:00.852Z,98801.09
2023-01-26T10:44:07.784Z,98786.00
2023-01-26T10:47:15.998Z,98791.75
2023-01-26T10:50:22.144Z,98787.81
2023-01-26T10:53:25.048Z,98786.63
2023-01-26T10:56:26.513Z,98782.88
2023-01-26T10:59:46.302Z,98779.59
2023-01-26T11:03:05.191Z,98784.00
2023-01-26T11:06:18.478Z,98785.56
2023-01-26T11:09:31.110Z,98778.91
2023-01-26T11:12:32.704Z,98780.88
2023-01-26T11:15:39.846Z,98790.31
2023-01-26T11:18:46.820Z,98783.63
2023-01-26T11:21:55.399Z,98772.31
2023-01-26T11:24:59.800Z,98775.28
2023-01-26T11:28:18.951Z,98776.97
2023-01-26T11:31:45.212Z,98780.38
2023-01-26T11:35:24.326Z,98781.97
2023-01-26T11:38:37.828Z,98771.00
2023-01-26T11:42:05.423Z,98761.72
2023-01-26T11:45:38.570Z,98753.41
2023-01-26T11:49:01.954Z,98752.69
2023-01-26T11:52:25.643Z,98743.63
2023-01-26T11:55:53.083Z,98740.41
2023-01-26T11:59:01.272Z,98737.53
2023-01-26T12:02:28.014Z,98730.88
2023-01-26T12:05:47.824Z,98732.34
2023-01-26T12:08:54.451Z,98742.03
2023-01-26T12:12:09.799Z,98740.41
2023-01-26T12:15:14.023Z,98737.72
2023-01-26T12:18:21.275Z,98739.94
2023-01-26T12:21:22.777Z,98740.69
2023-01-26T12:25:17.643Z,98747.81
2023-01-26T12:28:07.077Z,98736.81
2023-01-26T12:31:32.343Z,98727.44
2023-01-26T12:34:33.950Z,98717.97
2023-01-26T12:37:44.360Z,98708.53
2023-01-26T12:40:58.561Z,98708.69
2023-01-26T12:44:21.413Z,98711.13
2023-01-26T12:47:24.501Z,98716.78
2023-01-26T12:50:39.598Z,98710.69
2023-01-26T12:53:46.196Z,98710.38
2023-01-26T12:56:50.783Z,98705.97
2023-01-26T12:59:52.372Z,98703.41
2023-01-26T13:03:00.307Z,98703.06
2023-01-26T13:06:11.053Z,98696.53
2023-01-26T13:09:23.643Z,98697.75
2023-01-26T13:13:01.055Z,98692.25
2023-01-26T13:16:17.800Z,98698.75
2023-01-26T13:19:44.243Z,98692.75
2023-01-26T13:22:47.573Z,98689.38
2023-01-26T13:25:56.404Z,98680.94
2023-01-26T13:29:24.282Z,98677.34
2023-01-26T13:32:25.744Z,98682.06
2023-01-26T13:35:27.232Z,98683.63
2023-01-26T13:38:29.203Z,98693.94
2023-01-26T13:41:30.749Z,98698.28
2023-01-26T13:44:40.399Z,98704.09
2023-01-26T13:47:43.872Z,98704.50
2023-01-26T13:50:46.201Z,98701.16
2023-01-26T13:53:58.285Z,98698.75
2023-01-26T13:57:01.721Z,98704.63
2023-01-26T14:00:03.503Z,98698.22
2023-01-26T14:03:05.018Z,98707.28
2023-01-26T14:06:19.364Z,98701.75
2023-01-26T14:09:20.816Z,98710.41
2023-01-26T14:12:28.172Z,98707.63
2023-01-26T14:15:30.659Z,98709.19
2023-01-26T14:18:32.202Z,98714.47
2023-01-26T14:21:33.684Z,98713.31
2023-01-26T14:24:42.493Z,98715.84
2023-01-26T14:27:43.940Z,98719.41
2023-01-26T14:30:50.314Z,98721.09
2023-01-26T14:33:57.827Z,98722.75
2023-01-26T14:37:16.717Z,98722.34
2023-01-26T14:40:19.443Z,98730.09
2023-01-26T14:43:20.760Z,98730.19
2023-01-26T14:46:47.128Z,98735.22
2023-01-26T14:49:54.608Z,98734.34
2023-01-26T14:52:56.047Z,98740.72
2023-01-26T14:55:57.486Z,98737.38
2023-01-26T14:58:58.967Z,98735.84
2023-01-26T15:02:10.925Z,98750.06
2023-01-26T15:05:21.781Z,98751.94
2023-01-26T15:08:24.131Z,98760.06
2023-01-26T15:11:52.343Z,98760.03
2023-01-26T15:14:58.111Z,98758.69
2023-01-26T15:18:03.706Z,98752.69
2023-01-26T15:21:13.824Z,98751.56
2023-01-26T15:24:15.335Z,98757.06
2023-01-26T15:27:16.833Z,98750.06
2023-01-26T15:30:19.249Z,98752.13
2023-01-26T15:33:52.907Z,98755.84
2023-01-26T15:36:54.500Z,98759.28
2023-01-26T15:39:55.953Z,98759.56
2023-01-26T15:43:19.341Z,98761.53
2023-01-26T15:46:20.833Z,98758.75
2023-01-26T15:49:23.409Z,98750.31
2023-01-26T15:52:26.120Z,98758.81
2023-01-26T15:55:29.125Z,98765.00
2023-01-26T15:58:34.680Z,98761.94
2023-01-26T16:01:36.175Z,98758.94
2023-01-26T16:04:37.610Z,98762.38
2023-01-26T16:07:39.084Z,98765.97
2023-01-26T16:10:40.819Z,98761.00
2023-01-26T16:13:54.025Z,98769.84
2023-01-26T16:17:11.293Z,98767.06
2023-01-26T16:20:12.844Z,98763.91
2023-01-26T16:23:20.386Z,98758.19
2023-01-26T16:26:21.848Z,98762.63
2023-01-26T16:29:23.317Z,98771.47
2023-01-26T16:32:28.094Z,98767.34
2023-01-26T16:35:29.707Z,98768.16
2023-01-26T16:38:31.239Z,98768.06
2023-01-26T16:41:32.737Z,98767.22
2023-01-26T16:44:34.189Z,98768.81
2023-01-26T16:47:36.261Z,98775.53
2023-01-26T16:50:37.788Z,98768.03
2023-01-26T16:53:39.366Z,98764.59
2023-01-26T16:56:41.185Z,98758.31
2023-01-26T16:59:42.696Z,98764.75
2023-01-26T17:02:46.471Z,98754.78
2023-01-26T17:05:48.020Z,98757.78
2023-01-26T17:08:49.498Z,98754.34
2023-01-26T17:11:51.010Z,98760.16
2023-01-26T17:14:52.532Z,98761.25
2023-01-26T17:17:54.016Z,98761.84
2023-01-26T17:21:01.738Z,98765.22
2023-01-26T17:24:03.601Z,98760.75
2023-01-26T17:27:05.344Z,98759.69
2023-01-26T17:30:07.297Z,98769.38
2023-01-26T17:33:08.828Z,98761.13
2023-01-26T17:36:10.407Z,98772.00
2023-01-26T17:39:11.923Z,98774.16
2023-01-26T17:42:13.560Z,98772.91
2023-01-26T17:45:15.098Z,98767.75
2023-01-26T17:48:16.607Z,98779.75
2023-01-26T17:51:19.368Z,98777.03
2023-01-26T17:54:20.752Z,98776.25
2023-01-26T17:57:22.239Z,98782.47
2023-01-26T18:00:23.736Z,98777.59
2023-01-26T18:03:26.872Z,98770.44
2023-01-26T18:06:28.893Z,98778.78
2023-01-26T18:09:30.430Z,98779.00
2023-01-26T18:12:33.191Z,98779.06
2023-01-26T18:15:36.105Z,98772.72
2023-01-26T18:18:37.620Z,98788.09
2023-01-26T18:21:39.135Z,98785.09
2023-01-26T18:24:40.672Z,98792.47
2023-01-26T18:27:42.260Z,98782.84
2023-01-26T18:30:43.742Z,98792.22
2023-01-26T18:33:45.364Z,98781.34
2023-01-26T18:36:46.965Z,98785.69
2023-01-26T18:39:48.502Z,98788.66
2023-01-26T18:42:53.889Z,98791.75
2023-01-26T18:45:55.425Z,98788.72
2023-01-26T18:49:03.656Z,98788.91
2023-01-26T18:52:05.669Z,98797.50
2023-01-26T18:55:08.583Z,98797.13
2023-01-26T18:58:10.140Z,98797.28
2023-01-26T19:01:13.554Z,98796.41
2023-01-26T19:04:17.931Z,98797.75
2023-01-26T19:07:19.662Z,98806.34
2023-01-26T19:10:21.139Z,98801.75
2023-01-26T19:13:22.634Z,98807.28
2023-01-26T19:16:24.340Z,98808.31
2023-01-26T19:19:25.871Z,98813.63
2023-01-26T19:22:27.393Z,98809.53
2023-01-26T19:25:28.860Z,98809.53
2023-01-26T19:28:30.326Z,98813.69
2023-01-26T19:31:32.224Z,98809.84
2023-01-26T19:34:35.037Z,98809.69
2023-01-26T19:37:36.385Z,98810.66
2023-01-26T19:40:37.851Z,98806.53
2023-01-26T19:43:39.415Z,98802.78
2023-01-26T19:46:40.885Z,98803.91
2023-01-26T19:49:42.323Z,98796.41
2023-01-26T19:52:43.779Z,98796.72
2023-01-26T19:55:45.216Z,98801.09
2023-01-26T19:58:54.099Z,98820.22
2023-01-26T20:01:55.914Z,98812.41
2023-01-26T20:04:57.441Z,98803.44
2023-01-26T20:07:58.919Z,98805.06
2023-01-26T20:11:07.193Z,98808.22
2023-01-26T20:14:09.889Z,98802.28
2023-01-26T20:17:11.348Z,98810.97
2023-01-26T20:20:13.618Z,98814.00
2023-01-26T20:23:15.093Z,98805.84
2023-01-26T20:26:17.305Z,98810.56
2023-01-26T20:29:19.273Z,98807.50
2023-01-26T20:32:20.759Z,98812.47
2023-01-26T20:35:22.225Z,98807.44
2023-01-26T20:38:23.659Z,98816.31
2023-01-26T20:41:27.288Z,98806.88
2023-01-26T20:44:28.999Z,98812.00
2023-01-26T20:47:33.996Z,98809.31
2023-01-26T20:50:40.703Z,98794.34
2023-01-26T20:53:42.276Z,98797.16
2023-01-26T20:56:45.669Z,98803.91
2023-01-26T20:59:47.238Z,98799.09
2023-01-26T21:02:48.711Z,98793.53
2023-01-26T21:05:50.164Z,98798.84
2023-01-26T21:08:55.589Z,98799.03
2023-01-26T21:11:57.036Z,98794.06
2023-01-26T21:14:58.477Z,98794.13
2023-01-26T21:17:59.909Z,98795.59
2023-01-26T21:21:06.975Z,98796.00
2023-01-26T21:24:08.503Z,98785.84
2023-01-26T21:27:10.039Z,98782.31
2023-01-26T21:30:12.253Z,98785.81
2023-01-26T21:33:13.870Z,98782.97
2023-01-26T21:36:19.477Z,98795.06
2023-01-26T21:39:22.191Z,98795.28
2023-01-26T21:42:23.670Z,98791.75
2023-01-26T21:45:57.610Z,98789.56
2023-01-26T21:48:59.144Z,98786.88
2023-01-26T21:52:19.496Z,98779.19
2023-01-26T21:55:20.979Z,98788.28
2023-01-26T21:58:41.154Z,98781.53
2023-01-26T22:01:44.438Z,98779.34
2023-01-26T22:04:45.927Z,98777.84
2023-01-26T22:07:47.387Z,98783.19
2023-01-26T22:10:55.566Z,98790.56
2023-01-26T22:13:57.042Z,98798.72
2023-01-26T22:16:58.529Z,98793.13
2023-01-26T22:20:00.007Z,98785.50
2023-01-26T22:23:02.649Z,98780.50
2023-01-26T22:26:04.765Z,98776.97
2023-01-26T22:29:07.230Z,98777.41
2023-01-26T22:32:08.797Z,98785.16
2023-01-26T22:35:10.421Z,98778.00
2023-01-26T22:38:11.878Z,98763.16
2023-01-26T22:41:15.729Z,98772.06
2023-01-26T22:44:17.233Z,98784.19
2023-01-26T22:47:18.695Z,98779.41
2023-01-26T22:50:20.166Z,98774.41
2023-01-26T22:53:21.629Z,98774.56
2023-01-26T22:56:23.116Z,98766.72
2023-01-26T22:59:24.644Z,98772.31
2023-01-26T23:02:26.193Z,98764.44
2023-01-26T23:05:27.644Z,98758.66
2023-01-26T23:08:29.441Z,98755.88
2023-01-26T23:11:30.990Z,98754.03
2023-01-26T23:14:32.543Z,98750.41
2023-01-26T23:17:33.988Z,98743.47
2023-01-26T23:20:35.479Z,98747.16
2023-01-26T23:23:38.213Z,98744.06
2023-01-26T23:26:39.705Z,98747.66
2023-01-26T23:29:41.167Z,98750.75
2023-01-26T23:32:42.639Z,98745.94
2023-01-26T23:35:44.315Z,98737.72
2023-01-26T23:38:45.841Z,98740.75
2023-01-26T23:41:47.341Z,98733.88
2023-01-26T23:44:48.804Z,98729.28
2023-01-26T23:47:50.275Z,98730.13
2023-01-26T23:50:58.360Z,98721.16
2023-01-26T23:53:59.794Z,98714.44
2023-01-26T23:57:01.286Z,98720.41
